CheckWX is a tool to help pilots better visualize weather data.  It is not intended as a substitute for an official pre-flight weather briefing.

18:30:43 UTC

KHGR METAR
Hagerstown Regional-Richard A Henson Field Airport
Hagerstown, Maryland, USA
Current

38 mins ago

KHGR 221753Z 00000KT 9SM CLR 06/M04 A3038 RMK AO2 SLP300 T00611044 10061 20039 58010
Observed
Feb-22 @ 17:53 UTC
Visibility
9 SM
Flight Rules
VFR
Cloud Levels
  • Clear skies
Temperature
C / 43°F
Dewpoint
-4°C / 25°F
Humidity
49%
Altimeter
30.38" Hg
Pressure
1030 hPa
Previous

2 hours ago

KHGR 221653Z 00000KT 10SM CLR 06/M04 A3039 RMK AO2 SLP305 T00561044
Observed
Feb-22 @ 16:53 UTC
Visibility
10 SM
Flight Rules
VFR
Cloud Levels
  • Clear skies
Temperature
C / 43°F
Dewpoint
-4°C / 25°F
Humidity
49%
Altimeter
30.39" Hg
Pressure
1030.5 hPa
Previous

3 hours ago

KHGR 221553Z 31003KT 9SM CLR 06/M04 A3039 RMK AO2 SLP305 T00611039
Observed
Feb-22 @ 15:53 UTC
Wind
  • 310° at 3 KTS
Visibility
9 SM
Flight Rules
VFR
Cloud Levels
  • Clear skies
Temperature
C / 43°F
Dewpoint
-4°C / 25°F
Humidity
49%
Altimeter
30.39" Hg
Pressure
1030.5 hPa